createdAt,value
2022-11-13T00:00:33.045Z,42.60
2022-11-13T00:11:01.560Z,44.10
2022-11-13T00:21:06.527Z,41.40
2022-11-13T00:31:15.720Z,43.20
2022-11-13T00:41:23.568Z,43.60
2022-11-13T00:51:30.799Z,49.10
2022-11-13T01:01:38.179Z,46.70
2022-11-13T01:11:44.423Z,43.80
2022-11-13T01:21:51.586Z,38.80
2022-11-13T01:31:58.579Z,35.50
2022-11-13T01:42:05.782Z,34.30
2022-11-13T02:02:39.108Z,35.90
2022-11-13T02:12:51.172Z,38.40
2022-11-13T02:22:57.320Z,38.30
2022-11-13T02:33:17.964Z,33.30
2022-11-13T02:43:25.041Z,35.50
2022-11-13T02:53:32.348Z,31.00
2022-11-13T03:14:06.253Z,32.10
2022-11-13T03:24:13.369Z,29.30
2022-11-13T03:34:20.480Z,33.40
2022-11-13T03:44:27.701Z,35.30
2022-11-13T03:54:34.865Z,37.90
2022-11-13T04:04:42.021Z,34.50
2022-11-13T04:14:49.040Z,34.90
2022-11-13T04:24:56.197Z,32.70
2022-11-13T04:35:03.638Z,33.50
2022-11-13T04:45:10.297Z,33.50
2022-11-13T04:55:18.206Z,40.30
2022-11-13T05:05:25.396Z,34.90
2022-11-13T05:15:32.500Z,39.10
2022-11-13T05:25:39.448Z,37.00
2022-11-13T05:35:46.409Z,36.10
2022-11-13T05:45:53.667Z,31.40
2022-11-13T05:56:01.445Z,30.00
2022-11-13T06:06:09.096Z,33.00
2022-11-13T06:16:18.332Z,35.30
2022-11-13T06:26:28.726Z,34.30
2022-11-13T06:36:37.944Z,34.40
2022-11-13T06:46:44.863Z,34.80
2022-11-13T06:56:52.061Z,32.30
2022-11-13T07:06:59.237Z,32.00
2022-11-13T07:17:10.652Z,32.10
2022-11-13T07:27:17.929Z,33.20
2022-11-13T07:37:25.236Z,35.90
2022-11-13T07:47:32.272Z,34.90
2022-11-13T07:57:39.308Z,37.20
2022-11-13T08:07:51.201Z,35.50
2022-11-13T08:17:58.705Z,35.90
2022-11-13T08:28:10.089Z,28.10
2022-11-13T08:38:20.032Z,32.70
2022-11-13T08:48:27.678Z,29.20
2022-11-13T08:58:35.200Z,34.00
2022-11-13T09:08:42.533Z,33.70
2022-11-13T09:18:50.305Z,34.10
2022-11-13T09:28:57.515Z,32.40
2022-11-13T09:39:05.137Z,33.80
2022-11-13T09:49:19.236Z,34.60
2022-11-13T09:59:25.614Z,31.60
2022-11-13T10:09:31.447Z,33.40
2022-11-13T10:19:40.993Z,35.10
2022-11-13T10:29:49.354Z,30.00
2022-11-13T10:39:56.739Z,33.50
2022-11-13T10:50:10.766Z,33.00
2022-11-13T11:00:31.312Z,32.80
2022-11-13T11:11:01.246Z,34.00
2022-11-13T11:21:07.322Z,36.20
2022-11-13T11:31:12.652Z,39.50
2022-11-13T11:41:25.942Z,37.70
2022-11-13T11:51:33.887Z,37.60
2022-11-13T12:01:47.178Z,35.80
2022-11-13T12:11:53.733Z,38.80
2022-11-13T12:21:58.347Z,36.80
2022-11-13T12:32:04.523Z,34.90
2022-11-13T12:42:13.342Z,35.50
2022-11-13T12:52:24.696Z,31.10
2022-11-13T13:02:44.032Z,34.70
2022-11-13T13:12:50.799Z,31.90
2022-11-13T13:22:58.729Z,33.20
2022-11-13T13:33:06.740Z,27.40
2022-11-13T13:43:17.646Z,28.10
2022-11-13T13:53:26.443Z,28.60
2022-11-13T14:03:33.944Z,30.90
2022-11-13T14:13:42.180Z,39.20
2022-11-13T14:23:51.777Z,30.80
2022-11-13T14:34:00.971Z,29.40
2022-11-13T14:44:06.092Z,32.40
2022-11-13T14:54:33.803Z,31.00
2022-11-13T15:04:49.559Z,32.90
2022-11-13T15:14:56.784Z,34.30
2022-11-13T15:25:03.856Z,40.40
2022-11-13T15:35:10.991Z,36.60
2022-11-13T15:45:18.204Z,40.00
2022-11-13T15:55:25.637Z,52.70
2022-11-13T16:05:31.417Z,48.00
2022-11-13T16:15:38.536Z,56.50
2022-11-13T16:25:45.158Z,72.40
2022-11-13T16:35:51.126Z,52.10
2022-11-13T16:46:00.701Z,57.20
2022-11-13T17:06:20.595Z,50.20
2022-11-13T17:16:29.698Z,49.00
2022-11-13T17:36:42.971Z,49.40
2022-11-13T17:46:49.543Z,46.60
2022-11-13T17:56:56.953Z,44.60
2022-11-13T18:07:04.708Z,46.70
2022-11-13T18:17:12.635Z,49.20
2022-11-13T18:27:20.105Z,54.40
2022-11-13T18:37:26.195Z,50.90
2022-11-13T18:47:33.465Z,48.90
2022-11-13T18:57:41.038Z,41.60
2022-11-13T19:07:48.350Z,38.80
2022-11-13T19:17:54.600Z,37.30
2022-11-13T19:28:01.695Z,42.90
2022-11-13T19:38:09.036Z,36.20
2022-11-13T19:48:29.117Z,39.30
2022-11-13T19:58:34.941Z,34.50
2022-11-13T20:08:42.266Z,36.50
2022-11-13T20:18:48.409Z,36.00
2022-11-13T20:28:55.379Z,35.80
2022-11-13T20:39:05.579Z,27.80
2022-11-13T20:49:15.523Z,28.40
2022-11-13T20:59:21.684Z,30.10
2022-11-13T21:09:28.871Z,30.40
2022-11-13T21:19:35.764Z,30.50
2022-11-13T21:29:43.062Z,31.90
2022-11-13T21:39:50.034Z,29.50
2022-11-13T21:49:57.058Z,31.80
2022-11-13T22:00:04.961Z,32.10
2022-11-13T22:10:12.443Z,30.90
2022-11-13T22:20:18.716Z,34.30
2022-11-13T22:30:26.133Z,29.30
2022-11-13T22:40:35.343Z,30.20
2022-11-13T22:50:42.417Z,27.20
2022-11-13T23:00:49.639Z,26.30
2022-11-13T23:10:55.865Z,28.10
2022-11-13T23:21:02.917Z,32.10
2022-11-13T23:31:07.628Z,29.80
2022-11-13T23:41:15.235Z,24.70
2022-11-13T23:51:21.455Z,23.00
